Time;durP1;ratioP1;P1;durP2;ratioP2;P2;SDS_P1;SDS_P2;PMS_P1;PMS_P2;Temp;Humidity;BMP_temperature;BMP_pressure;BME280_temperature;BME280_humidity;BME280_pressure;Samples;Min_cycle;Max_cycle;Signal;HPM_P1;HPM_P2
2022/11/25 00:01:17;;;;;;;16.05;7.45;;;5.30;83.20;;;;;;5074903;28;20492;-75
2022/11/25 00:03:44;;;;;;;18.65;8.13;;;5.30;83.60;;;;;;5075492;28;20029;-83
2022/11/25 00:06:35;;;;;;;23.65;8.38;;;5.20;84.00;;;;;;5076385;28;20028;-74
2022/11/25 00:09:04;;;;;;;16.25;6.68;;;5.10;84.30;;;;;;5074973;28;20055;-74
2022/11/25 00:11:29;;;;;;;11.15;6.22;;;5.10;84.70;;;;;;5074795;28;20538;-74
2022/11/25 00:13:56;;;;;;;14.05;6.40;;;5.20;84.60;;;;;;5074563;28;20063;-76
2022/11/25 00:16:23;;;;;;;12.75;6.20;;;5.20;84.30;;;;;;5075030;28;20111;-75
2022/11/25 00:18:51;;;;;;;12.63;6.47;;;5.20;84.10;;;;;;5074508;28;20029;-74
2022/11/25 00:21:19;;;;;;;14.55;6.68;;;5.30;83.90;;;;;;5074562;28;20025;-74
2022/11/25 00:23:54;;;;;;;16.38;6.88;;;5.20;83.70;;;;;;5074759;28;20362;-74
2022/11/25 00:26:21;;;;;;;11.43;6.35;;;5.20;83.80;;;;;;5074038;28;20082;-73
2022/11/25 00:28:47;;;;;;;13.07;6.00;;;5.10;83.90;;;;;;5075106;28;20025;-81
2022/11/25 00:31:19;;;;;;;15.15;6.30;;;5.10;83.90;;;;;;5075735;28;20067;-74
2022/11/25 00:33:45;;;;;;;12.68;6.57;;;5.00;83.90;;;;;;5074493;28;20432;-75
2022/11/25 00:36:28;;;;;;;13.80;7.20;;;5.00;84.20;;;;;;5074344;28;20024;-75
2022/11/25 00:38:56;;;;;;;13.52;6.57;;;4.90;84.30;;;;;;5074536;28;20029;-74
2022/11/25 00:46:53;;;;;;;13.48;6.35;;;4.80;85.00;;;;;;5074562;28;20043;-74
2022/11/25 00:49:19;;;;;;;15.95;6.90;;;4.90;84.90;;;;;;5074293;28;20149;-73
2022/11/25 00:51:45;;;;;;;13.02;6.53;;;4.90;84.80;;;;;;5074040;28;20047;-74
2022/11/25 00:54:11;;;;;;;12.10;6.15;;;4.90;84.80;;;;;;5073606;28;20412;-74
2022/11/25 00:56:36;;;;;;;15.18;6.35;;;4.90;84.70;;;;;;5074244;28;20031;-80
2022/11/25 00:59:03;;;;;;;11.00;6.22;;;5.00;84.80;;;;;;5075561;28;20476;-74
2022/11/25 01:01:28;;;;;;;13.20;6.57;;;5.00;84.80;;;;;;5073852;28;20060;-74
2022/11/25 01:03:54;;;;;;;12.20;6.00;;;5.10;84.60;;;;;;5073607;28;20056;-74
2022/11/25 01:06:21;;;;;;;13.88;6.13;;;5.10;84.30;;;;;;5073566;28;20047;-74
2022/11/25 01:08:47;;;;;;;12.98;5.47;;;5.20;84.00;;;;;;5075094;28;20107;-74
2022/11/25 01:11:18;;;;;;;11.00;5.30;;;5.20;83.60;;;;;;5073478;28;20051;-74
2022/11/25 01:13:44;;;;;;;9.93;5.22;;;5.20;83.40;;;;;;5074721;28;20017;-74
2022/11/25 01:16:13;;;;;;;10.05;5.13;;;5.20;83.30;;;;;;5073371;28;20021;-73
2022/11/25 01:18:39;;;;;;;11.93;5.18;;;5.10;84.00;;;;;;5073382;28;20465;-73
2022/11/25 01:21:08;;;;;;;13.02;5.03;;;5.10;84.10;;;;;;5073516;28;20020;-73
2022/11/25 01:23:35;;;;;;;16.45;5.40;;;5.10;84.30;;;;;;5072858;28;20109;-74
2022/11/25 01:26:05;;;;;;;9.52;5.25;;;5.10;84.30;;;;;;5073598;28;20052;-76
2022/11/25 01:28:31;;;;;;;15.63;5.22;;;5.10;84.30;;;;;;5072967;28;20028;-74
2022/11/25 01:31:11;;;;;;;12.90;5.32;;;5.00;84.10;;;;;;5073199;28;20107;-74
2022/11/25 01:33:37;;;;;;;10.38;4.38;;;5.00;84.00;;;;;;5073907;28;20020;-82
2022/11/25 01:36:05;;;;;;;13.63;4.95;;;5.00;84.30;;;;;;5074595;28;20074;-74
2022/11/25 01:38:31;;;;;;;14.07;4.68;;;5.10;84.30;;;;;;5072993;28;20496;-74
2022/11/25 01:40:57;;;;;;;11.73;4.78;;;5.10;83.90;;;;;;5074386;28;20540;-76
2022/11/25 01:43:24;;;;;;;9.80;4.32;;;5.10;83.60;;;;;;5074351;28;20024;-77
2022/11/25 01:45:49;;;;;;;12.23;4.72;;;5.20;83.40;;;;;;5072831;28;20032;-75
2022/11/25 01:48:24;;;;;;;13.02;4.32;;;5.10;83.20;;;;;;5072617;28;20515;-74
2022/11/25 01:50:51;;;;;;;8.77;5.10;;;5.10;83.00;;;;;;5072596;28;20038;-75
2022/11/25 01:53:19;;;;;;;9.30;4.13;;;5.10;83.00;;;;;;5072529;28;20097;-74
2022/11/25 01:55:51;;;;;;;11.75;4.78;;;5.20;83.00;;;;;;5072170;28;20021;-83
2022/11/25 01:58:25;;;;;;;10.75;4.47;;;5.20;82.90;;;;;;5074046;28;20477;-74
2022/11/25 02:00:51;;;;;;;9.85;3.60;;;5.30;82.50;;;;;;5072555;28;20028;-74
2022/11/25 02:03:35;;;;;;;9.27;3.58;;;5.30;82.50;;;;;;5072301;28;20534;-74
2022/11/25 02:06:46;;;;;;;8.25;3.10;;;5.30;81.90;;;;;;5072489;28;20052;-75
2022/11/25 02:09:14;;;;;;;5.68;1.95;;;5.50;81.00;;;;;;5068273;28;20032;-82
2022/11/25 02:11:43;;;;;;;5.55;2.22;;;5.60;80.10;;;;;;5072732;28;20465;-74
2022/11/25 02:14:09;;;;;;;8.20;2.30;;;5.80;79.40;;;;;;5072581;28;20418;-73
2022/11/25 02:16:35;;;;;;;10.80;2.70;;;5.90;78.90;;;;;;5072373;28;20024;-73
2022/11/25 02:19:02;;;;;;;6.47;2.10;;;5.90;78.80;;;;;;5072465;28;20021;-73
2022/11/25 02:21:44;;;;;;;8.75;2.40;;;5.90;78.60;;;;;;5075273;28;20111;-74
2022/11/25 02:24:14;;;;;;;6.13;2.70;;;5.90;78.50;;;;;;5072421;28;20056;-74
2022/11/25 02:26:40;;;;;;;7.55;2.03;;;5.90;78.90;;;;;;5072238;28;20025;-80
2022/11/25 02:29:06;;;;;;;5.40;1.60;;;6.00;78.60;;;;;;5073236;28;20071;-74
2022/11/25 02:31:32;;;;;;;6.18;2.03;;;6.00;78.50;;;;;;5072098;28;20087;-74
2022/11/25 02:33:57;;;;;;;6.95;1.90;;;6.10;78.60;;;;;;5071931;28;20025;-74
2022/11/25 02:36:23;;;;;;;6.45;2.00;;;6.10;78.80;;;;;;5072369;28;20520;-77
2022/11/25 02:38:53;;;;;;;4.68;1.95;;;6.00;78.40;;;;;;5072172;28;20150;-75
2022/11/25 02:41:24;;;;;;;5.43;2.10;;;6.00;78.50;;;;;;5072223;28;20028;-77
2022/11/25 02:43:50;;;;;;;6.18;2.13;;;6.00;77.60;;;;;;5071713;28;20024;-75
2022/11/25 02:46:19;;;;;;;4.95;1.70;;;6.10;77.90;;;;;;5072130;28;20090;-77
2022/11/25 02:48:45;;;;;;;5.32;1.60;;;6.10;77.90;;;;;;5073199;28;20028;-75
2022/11/25 02:51:15;;;;;;;4.13;1.67;;;6.10;77.90;;;;;;5071815;28;20032;-75
2022/11/25 02:53:41;;;;;;;6.03;1.88;;;6.20;77.80;;;;;;5071613;28;20041;-76
2022/11/25 02:56:08;;;;;;;4.40;1.75;;;6.20;77.80;;;;;;5072084;28;20028;-76
2022/11/25 02:58:34;;;;;;;5.28;1.92;;;6.20;77.50;;;;;;5073089;28;20092;-75
2022/11/25 03:01:00;;;;;;;6.43;1.63;;;6.20;77.50;;;;;;5072080;28;20039;-75
2022/11/25 03:03:26;;;;;;;5.28;1.67;;;6.20;77.50;;;;;;5071690;28;20028;-76
2022/11/25 03:05:51;;;;;;;4.30;1.33;;;6.20;77.40;;;;;;5071647;28;20449;-79
2022/11/25 03:08:17;;;;;;;3.35;1.42;;;6.20;77.20;;;;;;5071749;28;20032;-75
2022/11/25 03:10:43;;;;;;;6.30;1.90;;;6.20;77.00;;;;;;5072043;28;20370;-75
2022/11/25 03:13:09;;;;;;;4.93;1.55;;;6.20;77.00;;;;;;5072354;28;20048;-75
2022/11/25 03:15:36;;;;;;;5.00;1.50;;;6.20;77.00;;;;;;5072496;28;20059;-76
2022/11/25 03:18:03;;;;;;;5.85;1.63;;;6.20;77.10;;;;;;5072121;28;20499;-77
2022/11/25 03:20:29;;;;;;;7.28;1.25;;;6.20;77.10;;;;;;5072395;28;20025;-77
2022/11/25 03:22:54;;;;;;;4.88;1.55;;;6.20;77.10;;;;;;5072613;28;20042;-79
2022/11/25 03:25:20;;;;;;;4.88;1.42;;;6.20;77.10;;;;;;5072672;28;20037;-76
2022/11/25 03:27:46;;;;;;;4.18;1.42;;;6.30;77.30;;;;;;5076243;28;20473;-78
2022/11/25 03:30:19;;;;;;;4.45;1.33;;;6.30;77.10;;;;;;5073300;28;20071;-76
2022/11/25 03:32:44;;;;;;;7.22;1.80;;;6.30;76.90;;;;;;5067588;28;20023;-75
2022/11/25 03:35:11;;;;;;;3.75;1.73;;;6.20;76.70;;;;;;5073659;28;20020;-77
2022/11/25 03:37:38;;;;;;;4.05;1.52;;;6.20;76.70;;;;;;5073322;28;20460;-83
2022/11/25 03:40:05;;;;;;;4.22;1.33;;;6.20;77.00;;;;;;5072843;28;20404;-75
2022/11/25 03:42:31;;;;;;;3.45;1.45;;;6.10;77.20;;;;;;5071667;28;20028;-79
2022/11/25 03:44:56;;;;;;;6.20;1.67;;;6.10;77.40;;;;;;5072933;28;20040;-75
2022/11/25 03:47:22;;;;;;;5.90;1.75;;;6.00;77.60;;;;;;5071139;28;20032;-79
2022/11/25 03:49:48;;;;;;;6.68;1.60;;;6.00;77.80;;;;;;5071304;28;20025;-75
2022/11/25 03:52:14;;;;;;;6.78;1.70;;;6.00;77.90;;;;;;5071604;28;20115;-75
2022/11/25 03:54:40;;;;;;;5.95;1.70;;;6.00;77.80;;;;;;5071575;28;20035;-74
2022/11/25 03:57:05;;;;;;;4.55;1.83;;;6.00;77.90;;;;;;5071010;28;20442;-75
2022/11/25 03:59:31;;;;;;;4.75;1.65;;;5.90;78.00;;;;;;5071671;28;20476;-77
2022/11/25 04:01:57;;;;;;;3.75;1.50;;;5.90;79.00;;;;;;5072984;28;20025;-75
2022/11/25 04:04:23;;;;;;;8.00;1.90;;;5.90;78.20;;;;;;5071098;28;20549;-75
2022/11/25 04:06:48;;;;;;;4.88;1.80;;;5.90;78.30;;;;;;5072080;28;20028;-75
2022/11/25 04:09:14;;;;;;;4.70;1.58;;;5.90;78.40;;;;;;5072407;28;20444;-76
2022/11/25 04:14:23;;;;;;;4.10;1.48;;;5.90;78.90;;;;;;5072549;28;20036;-75
2022/11/25 04:16:49;;;;;;;5.35;1.50;;;5.90;78.00;;;;;;5071503;28;20412;-75
2022/11/25 04:19:16;;;;;;;3.42;1.40;;;5.80;77.80;;;;;;5058062;28;20033;-75
2022/11/25 04:21:42;;;;;;;5.10;1.48;;;5.80;77.60;;;;;;5074797;28;20094;-75
2022/11/25 04:24:08;;;;;;;7.28;1.52;;;5.80;77.80;;;;;;5074641;28;20501;-74
2022/11/25 04:26:34;;;;;;;3.90;1.92;;;5.70;78.00;;;;;;5075641;28;20366;-79
2022/11/25 04:28:59;;;;;;;8.98;2.47;;;5.70;78.10;;;;;;5076877;28;20078;-75
2022/11/25 04:31:25;;;;;;;4.93;2.35;;;5.70;78.00;;;;;;5074137;28;20028;-75
2022/11/25 04:33:50;;;;;;;4.28;2.10;;;5.70;77.80;;;;;;5074354;28;20020;-75
2022/11/25 04:36:16;;;;;;;4.70;2.38;;;5.70;78.00;;;;;;5074439;28;20165;-75
2022/11/25 04:38:43;;;;;;;7.88;3.92;;;5.80;78.10;;;;;;5057568;28;20103;-75
2022/11/25 04:41:08;;;;;;;9.65;4.22;;;5.80;77.90;;;;;;5074211;28;20020;-75
2022/11/25 04:43:34;;;;;;;7.50;2.75;;;5.70;77.90;;;;;;5057552;28;20036;-74
2022/11/25 04:46:00;;;;;;;4.82;2.33;;;5.70;77.70;;;;;;5074277;28;20029;-74
2022/11/25 04:48:27;;;;;;;6.85;2.05;;;5.70;77.70;;;;;;5073774;28;20025;-74
2022/11/25 04:50:55;;;;;;;5.75;1.67;;;5.70;77.70;;;;;;5073864;28;20056;-74
2022/11/25 04:53:20;;;;;;;5.45;1.60;;;5.80;77.60;;;;;;5073694;28;20059;-74
2022/11/25 04:55:46;;;;;;;6.43;1.98;;;5.80;77.40;;;;;;5073836;28;20028;-74
2022/11/25 04:58:13;;;;;;;4.22;1.27;;;5.80;77.30;;;;;;5073429;28;20415;-74
2022/11/25 05:00:39;;;;;;;3.42;1.40;;;5.80;77.00;;;;;;5073796;28;20028;-74
2022/11/25 05:03:05;;;;;;;3.85;1.20;;;5.90;77.00;;;;;;5073734;28;20504;-74
2022/11/25 05:05:31;;;;;;;4.65;1.67;;;5.90;77.00;;;;;;5073532;28;20499;-74
2022/11/25 05:07:56;;;;;;;8.63;1.55;;;5.90;76.90;;;;;;5073649;28;20024;-76
2022/11/25 05:10:22;;;;;;;2.22;1.42;;;6.00;77.00;;;;;;5073522;28;20060;-74
2022/11/25 05:12:48;;;;;;;6.05;2.10;;;6.00;77.00;;;;;;5073593;28;20050;-75
2022/11/25 05:15:13;;;;;;;6.35;2.05;;;6.00;76.80;;;;;;5073758;28;20028;-75
2022/11/25 05:17:39;;;;;;;7.75;2.65;;;6.00;76.70;;;;;;5073177;28;20024;-75
2022/11/25 05:20:06;;;;;;;5.40;2.35;;;6.00;77.00;;;;;;5073365;28;20024;-75
2022/11/25 05:22:33;;;;;;;4.75;1.90;;;6.00;77.30;;;;;;5073413;28;20032;-75
2022/11/25 05:25:15;;;;;;;3.00;1.77;;;6.00;77.20;;;;;;5073406;28;20085;-84
2022/11/25 05:27:46;;;;;;;5.88;2.30;;;6.00;77.20;;;;;;5075524;28;20481;-75
2022/11/25 05:30:12;;;;;;;8.45;2.05;;;5.90;77.50;;;;;;5074562;28;20040;-80
2022/11/25 05:32:39;;;;;;;7.57;2.05;;;6.00;77.20;;;;;;5073460;28;20016;-74
2022/11/25 05:35:05;;;;;;;9.82;2.10;;;6.00;77.40;;;;;;5072709;28;20488;-74
2022/11/25 05:37:30;;;;;;;5.13;2.10;;;6.00;77.50;;;;;;5073090;28;20028;-74
2022/11/25 05:39:56;;;;;;;5.32;2.08;;;6.00;77.30;;;;;;5073172;28;20111;-73
2022/11/25 05:42:21;;;;;;;5.75;2.10;;;6.00;77.50;;;;;;5072925;28;20025;-73
2022/11/25 05:44:47;;;;;;;6.60;2.00;;;6.00;77.90;;;;;;5072569;28;20108;-73
2022/11/25 05:47:13;;;;;;;5.07;1.88;;;6.00;78.20;;;;;;5072617;28;20075;-72
2022/11/25 05:49:38;;;;;;;5.97;2.22;;;6.00;78.10;;;;;;5072806;28;20021;-73
2022/11/25 05:52:04;;;;;;;5.72;2.10;;;6.10;78.20;;;;;;5072469;28;20024;-73
2022/11/25 05:54:29;;;;;;;4.32;1.92;;;6.00;78.00;;;;;;5072058;28;20045;-72
2022/11/25 05:56:55;;;;;;;7.95;2.67;;;6.10;77.80;;;;;;5072399;28;20085;-73
2022/11/25 05:59:21;;;;;;;8.10;2.28;;;6.10;77.70;;;;;;5072585;28;20507;-73
2022/11/25 06:01:47;;;;;;;12.63;4.32;;;6.20;77.70;;;;;;5072341;28;20020;-72
2022/11/25 06:04:13;;;;;;;9.35;3.60;;;6.20;77.30;;;;;;5072473;28;20070;-73
2022/11/25 06:06:39;;;;;;;9.30;3.15;;;6.20;77.20;;;;;;5072687;28;20029;-72
2022/11/25 06:09:05;;;;;;;6.18;2.67;;;6.20;77.10;;;;;;5071974;28;20111;-73
2022/11/25 06:11:30;;;;;;;4.30;2.38;;;6.30;77.20;;;;;;5072324;28;20030;-74
2022/11/25 06:13:57;;;;;;;11.25;2.83;;;6.30;77.10;;;;;;5072366;28;20450;-73
2022/11/25 06:16:23;;;;;;;10.32;2.75;;;6.30;77.30;;;;;;5072155;28;20024;-73
2022/11/25 06:18:49;;;;;;;8.98;3.00;;;6.40;77.10;;;;;;5072198;28;20021;-73
2022/11/25 06:21:15;;;;;;;4.18;2.65;;;6.40;77.00;;;;;;5072285;28;20035;-74
2022/11/25 06:23:40;;;;;;;6.28;2.88;;;6.40;76.30;;;;;;5071558;28;20542;-81
2022/11/25 06:26:09;;;;;;;8.05;2.97;;;6.50;76.30;;;;;;5071988;28;20059;-73
2022/11/25 06:28:35;;;;;;;8.93;3.17;;;6.50;75.90;;;;;;5071971;28;20017;-75
2022/11/25 06:31:07;;;;;;;5.30;2.88;;;6.50;76.10;;;;;;5071276;28;20044;-84
2022/11/25 06:33:32;;;;;;;7.95;3.30;;;6.60;75.90;;;;;;5071877;28;20110;-76
2022/11/25 06:35:58;;;;;;;10.18;2.80;;;6.60;75.90;;;;;;5071867;28;20111;-77
2022/11/25 06:38:24;;;;;;;8.55;2.88;;;6.60;75.70;;;;;;5071827;28;20090;-72
2022/11/25 06:40:49;;;;;;;5.43;2.40;;;6.60;75.90;;;;;;5071387;28;20477;-73
2022/11/25 06:43:15;;;;;;;8.52;3.17;;;6.70;76.20;;;;;;5072730;28;20062;-72
2022/11/25 06:45:40;;;;;;;8.20;3.00;;;6.60;75.90;;;;;;5072947;28;20040;-72
2022/11/25 06:48:06;;;;;;;10.43;2.97;;;6.60;75.80;;;;;;5072649;28;20017;-72
2022/11/25 06:50:31;;;;;;;6.47;2.28;;;6.60;75.80;;;;;;5072738;28;20028;-73
2022/11/25 06:53:00;;;;;;;10.27;3.20;;;6.70;76.10;;;;;;5072601;28;20119;-72
2022/11/25 06:55:25;;;;;;;6.72;2.90;;;6.70;76.10;;;;;;5072731;28;20039;-73
2022/11/25 06:57:51;;;;;;;7.57;2.17;;;6.70;76.00;;;;;;5072769;28;20568;-73
2022/11/25 07:00:17;;;;;;;5.68;2.63;;;6.70;75.90;;;;;;5072775;28;20385;-72
2022/11/25 07:02:42;;;;;;;6.95;2.83;;;6.70;75.80;;;;;;5072564;28;20036;-75
2022/11/25 07:05:08;;;;;;;6.78;2.72;;;6.70;75.90;;;;;;5072306;28;20032;-73
2022/11/25 07:07:33;;;;;;;7.22;2.78;;;6.70;75.90;;;;;;5071154;28;20058;-73
2022/11/25 07:09:59;;;;;;;8.90;2.90;;;6.70;75.90;;;;;;5072657;28;20035;-73
2022/11/25 07:12:24;;;;;;;6.03;2.85;;;6.70;76.00;;;;;;5072665;28;20020;-72
2022/11/25 07:14:50;;;;;;;11.07;4.25;;;6.80;76.10;;;;;;5071229;28;20052;-73
2022/11/25 07:17:16;;;;;;;10.13;3.42;;;6.80;76.40;;;;;;5072608;28;20036;-73
2022/11/25 07:19:41;;;;;;;11.13;3.88;;;6.90;76.30;;;;;;5072246;28;20519;-73
2022/11/25 07:22:07;;;;;;;11.35;3.53;;;7.00;75.50;;;;;;5072438;28;20424;-73
2022/11/25 07:24:33;;;;;;;8.38;3.33;;;7.00;75.40;;;;;;5072224;28;20165;-73
2022/11/25 07:26:58;;;;;;;13.13;3.67;;;6.90;75.10;;;;;;5072314;28;20016;-73
2022/11/25 07:29:24;;;;;;;8.38;2.90;;;6.90;74.90;;;;;;5072061;28;20039;-72
2022/11/25 07:31:49;;;;;;;9.35;3.60;;;7.00;74.70;;;;;;5070681;28;20021;-72
2022/11/25 07:34:18;;;;;;;8.00;3.42;;;7.00;74.60;;;;;;5072004;28;20024;-72
2022/11/25 07:36:46;;;;;;;8.45;3.42;;;7.00;74.80;;;;;;5072096;28;20103;-72
2022/11/25 07:39:17;;;;;;;12.07;3.92;;;6.90;75.10;;;;;;5071837;28;20070;-73
2022/11/25 07:41:42;;;;;;;10.68;4.20;;;7.00;75.10;;;;;;5071933;28;20056;-73
2022/11/25 07:44:11;;;;;;;9.93;4.35;;;7.00;75.20;;;;;;5070947;28;20113;-73
2022/11/25 07:46:40;;;;;;;8.73;3.72;;;7.10;75.40;;;;;;5072737;28;20028;-73
2022/11/25 07:49:11;;;;;;;10.57;4.82;;;7.10;75.30;;;;;;5070611;28;20064;-73
2022/11/25 07:51:42;;;;;;;11.30;5.88;;;7.10;75.50;;;;;;5072182;28;20024;-72
2022/11/25 07:54:10;;;;;;;11.85;5.10;;;7.10;75.20;;;;;;5074721;28;20051;-73
2022/11/25 07:56:38;;;;;;;9.93;4.70;;;7.10;75.40;;;;;;5075950;28;20032;-73
2022/11/25 07:59:08;;;;;;;10.05;3.92;;;7.10;75.40;;;;;;5075692;28;20096;-73
2022/11/25 08:01:34;;;;;;;10.23;3.47;;;7.10;75.60;;;;;;5076065;28;20046;-74
2022/11/25 08:04:00;;;;;;;11.90;3.55;;;7.10;75.40;;;;;;5075778;28;20032;-74
2022/11/25 08:06:27;;;;;;;9.43;3.03;;;7.20;75.50;;;;;;5075665;28;20033;-73
2022/11/25 08:08:54;;;;;;;7.88;3.33;;;7.30;75.40;;;;;;5075633;28;20440;-78
2022/11/25 08:11:39;;;;;;;8.05;3.22;;;7.30;75.20;;;;;;5075280;28;20477;-72
2022/11/25 08:14:04;;;;;;;9.73;3.78;;;7.40;75.00;;;;;;5076297;28;20474;-77
2022/11/25 08:16:31;;;;;;;9.63;4.60;;;7.50;75.10;;;;;;5074227;28;20136;-73
2022/11/25 08:19:02;;;;;;;10.93;4.30;;;7.50;74.50;;;;;;5076499;28;20105;-77
2022/11/25 08:21:27;;;;;;;12.38;4.50;;;7.50;74.70;;;;;;5074707;28;20038;-74
2022/11/25 08:23:54;;;;;;;8.27;3.92;;;7.60;74.70;;;;;;5075283;28;20123;-73
2022/11/25 08:26:22;;;;;;;8.07;3.97;;;7.70;74.70;;;;;;5075117;28;20155;-72
2022/11/25 08:28:48;;;;;;;9.05;4.10;;;7.70;74.60;;;;;;5075191;28;20028;-73
2022/11/25 08:31:17;;;;;;;10.80;3.97;;;7.90;74.50;;;;;;5075054;28;20063;-73
2022/11/25 08:33:44;;;;;;;13.05;4.13;;;7.90;73.80;;;;;;5075036;28;20025;-72
2022/11/25 08:36:10;;;;;;;7.85;4.10;;;7.90;73.40;;;;;;5073728;28;20025;-72
2022/11/25 08:38:37;;;;;;;22.20;3.85;;;8.00;73.50;;;;;;5075340;28;20028;-73
2022/11/25 08:41:15;;;;;;;10.15;3.55;;;8.20;78.30;;;;;;5073743;28;20033;-75
2022/11/25 08:43:41;;;;;;;10.55;3.38;;;8.40;78.40;;;;;;5073958;28;20077;-74
2022/11/25 08:46:10;;;;;;;10.50;3.67;;;8.70;76.20;;;;;;5075117;28;20025;-76
2022/11/25 08:48:35;;;;;;;10.15;3.25;;;9.00;76.10;;;;;;5074799;28;20103;-76
2022/11/25 08:51:05;;;;;;;9.27;2.90;;;9.30;74.70;;;;;;5075453;28;20066;-77
2022/11/25 08:53:31;;;;;;;10.35;4.93;;;9.80;73.40;;;;;;5074906;28;20082;-76
2022/11/25 08:55:56;;;;;;;11.32;4.40;;;10.30;70.40;;;;;;5074888;28;20025;-79
2022/11/25 08:58:22;;;;;;;10.45;4.25;;;10.50;68.50;;;;;;5075252;28;20438;-76
2022/11/25 09:00:48;;;;;;;8.40;4.28;;;10.70;68.40;;;;;;5074759;28;20017;-76
2022/11/25 09:03:13;;;;;;;9.40;3.92;;;11.00;67.10;;;;;;5074189;28;20362;-76
2022/11/25 09:05:41;;;;;;;10.20;3.63;;;11.20;67.30;;;;;;5074708;28;20047;-76
2022/11/25 09:08:09;;;;;;;9.40;3.15;;;11.20;66.40;;;;;;5074617;28;20473;-76
2022/11/25 09:10:36;;;;;;;5.72;2.88;;;11.40;65.80;;;;;;5074312;28;20056;-75
2022/11/25 09:13:01;;;;;;;9.07;3.35;;;11.40;64.70;;;;;;5072649;28;20024;-76
2022/11/25 09:15:27;;;;;;;7.10;3.25;;;11.30;63.00;;;;;;5073265;28;20028;-76
2022/11/25 09:18:00;;;;;;;7.75;2.80;;;11.20;64.70;;;;;;5074359;28;20021;-77
2022/11/25 09:20:27;;;;;;;7.03;3.33;;;11.20;63.50;;;;;;5073773;28;20385;-73
2022/11/25 09:22:53;;;;;;;10.20;3.92;;;11.30;62.50;;;;;;5074503;28;20025;-73
2022/11/25 09:25:19;;;;;;;9.70;3.75;;;11.30;61.60;;;;;;5074199;28;20070;-73
2022/11/25 09:27:45;;;;;;;8.98;3.80;;;11.20;62.00;;;;;;5074017;28;20461;-74
2022/11/25 09:30:11;;;;;;;6.95;2.80;;;11.10;62.60;;;;;;5073943;28;20029;-74
2022/11/25 09:32:36;;;;;;;8.40;3.33;;;11.20;61.90;;;;;;5073827;28;20471;-74
2022/11/25 09:35:02;;;;;;;10.85;3.33;;;11.20;61.60;;;;;;5073913;28;20055;-73
2022/11/25 09:37:28;;;;;;;8.15;2.97;;;11.40;62.00;;;;;;5073716;28;20086;-82
2022/11/25 09:39:54;;;;;;;9.13;3.15;;;11.60;61.70;;;;;;5073721;28;20041;-73
2022/11/25 09:48:57;;;;;;;8.63;2.40;;;12.20;59.80;;;;;;5012219;28;20056;-74
2022/11/25 09:51:48;;;;;;;5.28;2.20;;;12.30;58.20;;;;;;5069063;28;20040;-72
2022/11/25 09:54:22;;;;;;;4.45;1.27;;;12.40;58.10;;;;;;5073134;28;20089;-74
2022/11/25 09:56:56;;;;;;;7.35;1.70;;;12.10;57.50;;;;;;5073656;28;20025;-74
2022/11/25 09:59:31;;;;;;;6.95;1.38;;;11.90;58.60;;;;;;5073488;28;20419;-74
2022/11/25 10:02:21;;;;;;;4.47;1.10;;;11.60;59.20;;;;;;5073653;28;20028;-74
2022/11/25 10:04:53;;;;;;;7.20;1.40;;;11.50;59.70;;;;;;5073754;28;20465;-74
2022/11/25 10:07:37;;;;;;;4.30;1.30;;;11.50;60.00;;;;;;5072359;28;20107;-74
2022/11/25 10:10:05;;;;;;;3.05;1.10;;;11.30;60.80;;;;;;5073409;28;20028;-74
2022/11/25 10:12:43;;;;;;;4.63;1.20;;;10.80;62.50;;;;;;5072011;28;20025;-75
2022/11/25 10:15:22;;;;;;;5.13;1.20;;;10.60;63.30;;;;;;5072314;28;20043;-74
2022/11/25 10:17:52;;;;;;;5.18;1.30;;;10.40;64.20;;;;;;5073182;28;20028;-73
2022/11/25 10:20:24;;;;;;;4.55;1.13;;;10.40;65.90;;;;;;5073664;28;20024;-73
2022/11/25 10:23:03;;;;;;;9.60;1.70;;;10.30;65.30;;;;;;5073205;28;20027;-74
2022/11/25 10:25:34;;;;;;;4.30;1.33;;;10.20;65.40;;;;;;5073134;28;20060;-75
2022/11/25 10:28:07;;;;;;;5.57;1.15;;;10.20;65.70;;;;;;5073263;28;20106;-75
2022/11/25 10:30:51;;;;;;;3.88;0.90;;;10.10;65.70;;;;;;5073145;28;20460;-76
2022/11/25 10:33:20;;;;;;;3.33;0.90;;;10.00;66.40;;;;;;5073058;28;20121;-78
2022/11/25 10:36:13;;;;;;;2.78;1.05;;;9.90;66.00;;;;;;5072934;28;20025;-76
2022/11/25 10:39:06;;;;;;;3.92;0.70;;;9.90;66.50;;;;;;5072759;28;20105;-75
2022/11/25 10:41:41;;;;;;;4.93;1.15;;;9.90;66.50;;;;;;5073451;28;20024;-75
2022/11/25 10:44:22;;;;;;;4.68;1.00;;;10.00;66.30;;;;;;5072813;28;20051;-75
2022/11/25 10:47:23;;;;;;;2.55;0.98;;;9.90;66.30;;;;;;5072850;28;20412;-75
2022/11/25 10:50:24;;;;;;;3.60;1.23;;;9.90;66.80;;;;;;5072744;28;20477;-74
2022/11/25 10:52:54;;;;;;;3.85;1.15;;;9.90;67.10;;;;;;5072333;28;20044;-76
2022/11/25 10:55:24;;;;;;;4.78;1.20;;;9.90;66.60;;;;;;5071378;28;20016;-75
2022/11/25 10:57:51;;;;;;;2.30;0.80;;;9.90;67.50;;;;;;5072021;28;20082;-75
2022/11/25 11:00:30;;;;;;;3.97;0.73;;;10.00;66.10;;;;;;5072542;28;20043;-78
2022/11/25 11:02:57;;;;;;;5.40;1.25;;;10.10;65.20;;;;;;5072486;28;20040;-75
2022/11/25 11:05:28;;;;;;;3.53;0.93;;;10.20;65.20;;;;;;5072109;28;20107;-75
2022/11/25 11:08:18;;;;;;;2.75;0.70;;;10.30;64.80;;;;;;5071977;28;20027;-74
2022/11/25 11:10:45;;;;;;;3.67;1.10;;;10.30;64.50;;;;;;5071976;28;20024;-75
2022/11/25 11:13:16;;;;;;;2.70;1.25;;;10.30;65.00;;;;;;5071751;28;20028;-76
2022/11/25 11:15:42;;;;;;;4.28;1.15;;;10.40;65.20;;;;;;5071628;28;20090;-74
2022/11/25 11:18:28;;;;;;;3.60;0.75;;;10.40;64.50;;;;;;5070949;28;20029;-75
2022/11/25 11:20:58;;;;;;;2.42;0.80;;;10.30;64.80;;;;;;5072031;28;20098;-75
2022/11/25 11:23:26;;;;;;;6.00;1.88;;;10.30;64.10;;;;;;5070521;28;20090;-75
2022/11/25 11:26:01;;;;;;;4.28;1.20;;;10.40;64.80;;;;;;5072258;28;20025;-75
2022/11/25 11:28:33;;;;;;;5.35;1.38;;;10.40;64.90;;;;;;5076038;28;20055;-75
2022/11/25 11:31:24;;;;;;;3.13;1.45;;;10.50;64.40;;;;;;5074844;28;20124;-74
2022/11/25 11:33:57;;;;;;;4.72;0.90;;;10.50;65.00;;;;;;5074907;28;20385;-74
2022/11/25 11:36:46;;;;;;;1.98;0.73;;;10.40;65.00;;;;;;5076350;28;20123;-76
2022/11/25 11:39:34;;;;;;;3.78;0.60;;;10.30;65.70;;;;;;5075115;28;20035;-74
2022/11/25 11:42:36;;;;;;;3.40;0.90;;;10.20;66.10;;;;;;5075826;28;20025;-76
2022/11/25 11:45:20;;;;;;;2.85;1.38;;;10.00;67.00;;;;;;5075976;28;20043;-74
2022/11/25 11:48:13;;;;;;;2.58;0.80;;;9.90;68.30;;;;;;5076220;28;20385;-74
2022/11/25 11:50:45;;;;;;;3.83;1.13;;;9.70;69.70;;;;;;5075416;28;20035;-75
2022/11/25 11:53:40;;;;;;;6.63;1.45;;;9.70;69.90;;;;;;5076270;28;20125;-76
2022/11/25 11:56:26;;;;;;;2.40;1.10;;;9.70;70.00;;;;;;5075716;28;20497;-75
2022/11/25 11:59:18;;;;;;;6.00;1.40;;;9.60;70.90;;;;;;5075634;28;20055;-75
2022/11/25 12:02:12;;;;;;;3.63;1.02;;;9.70;71.50;;;;;;5075892;28;20087;-73
2022/11/25 12:04:44;;;;;;;5.55;2.05;;;9.60;72.00;;;;;;5047782;28;20040;-75
2022/11/25 12:07:44;;;;;;;6.20;2.03;;;9.70;73.30;;;;;;5077387;28;20042;-78
2022/11/25 12:10:23;;;;;;;5.60;2.58;;;9.60;73.50;;;;;;5080679;28;20389;-74
2022/11/25 12:13:12;;;;;;;4.38;1.98;;;9.50;75.80;;;;;;5076959;28;20028;-74
2022/11/25 12:15:47;;;;;;;6.57;2.25;;;9.40;77.50;;;;;;5077438;28;20074;-73
2022/11/25 12:18:15;;;;;;;7.20;2.88;;;9.30;78.50;;;;;;5075608;28;20017;-74
2022/11/25 12:20:51;;;;;;;7.40;2.53;;;9.30;80.00;;;;;;5075561;28;20060;-74
2022/11/25 12:23:45;;;;;;;6.35;2.72;;;9.30;80.90;;;;;;5075782;28;20017;-73
2022/11/25 12:26:27;;;;;;;9.25;2.60;;;9.30;82.00;;;;;;5075185;28;20112;-73
2022/11/25 12:29:04;;;;;;;14.15;2.78;;;9.30;82.20;;;;;;5075268;28;20027;-73
2022/11/25 12:31:48;;;;;;;9.32;2.83;;;9.30;83.60;;;;;;5075301;28;20028;-74
2022/11/25 12:34:32;;;;;;;8.35;3.17;;;9.30;83.50;;;;;;5065486;28;20027;-74
2022/11/25 12:37:06;;;;;;;8.00;2.78;;;9.30;84.20;;;;;;5063909;28;20074;-75
2022/11/25 12:39:46;;;;;;;8.07;2.80;;;9.20;85.00;;;;;;5062941;28;20024;-83
2022/11/25 12:42:23;;;;;;;10.15;3.38;;;9.20;84.80;;;;;;5063019;28;20477;-74
2022/11/25 12:45:22;;;;;;;7.50;2.95;;;9.20;84.80;;;;;;5062541;28;20062;-76
2022/11/25 12:47:48;;;;;;;7.85;3.38;;;9.20;84.70;;;;;;5065529;28;20025;-74
2022/11/25 12:50:20;;;;;;;8.68;4.00;;;9.20;84.90;;;;;;5063188;28;20017;-74
2022/11/25 12:53:11;;;;;;;10.02;3.85;;;9.20;84.80;;;;;;5062581;28;20564;-75
2022/11/25 12:55:38;;;;;;;12.35;5.38;;;9.20;84.60;;;;;;5062007;28;20020;-77
2022/11/25 12:58:21;;;;;;;10.45;5.18;;;9.20;84.70;;;;;;5064157;28;20106;-74
2022/11/25 13:01:05;;;;;;;9.45;3.90;;;9.10;84.90;;;;;;5064649;28;20110;-79
2022/11/25 13:03:50;;;;;;;10.43;3.47;;;9.10;85.00;;;;;;5061496;28;20021;-78
2022/11/25 13:06:40;;;;;;;9.23;3.58;;;9.10;84.90;;;;;;5056924;28;20021;-74
2022/11/25 13:09:08;;;;;;;13.00;3.55;;;9.20;84.70;;;;;;5054725;28;20104;-74
2022/11/25 13:12:09;;;;;;;9.15;3.42;;;9.20;84.70;;;;;;5054228;28;20389;-74
2022/11/25 13:15:17;;;;;;;7.68;3.25;;;9.10;84.50;;;;;;5054855;28;20017;-74
2022/11/25 13:17:47;;;;;;;39.95;19.85;;;9.10;84.80;;;;;;5054297;28;20027;-73
2022/11/25 13:20:27;;;;;;;15.38;8.10;;;9.20;84.80;;;;;;5054716;28;20104;-74
2022/11/25 13:23:09;;;;;;;7.43;3.10;;;9.20;84.20;;;;;;5054175;28;20033;-74
2022/11/25 13:25:38;;;;;;;2.80;1.90;;;9.20;84.30;;;;;;5053644;28;20126;-74